createdAt,value
2022-10-22T00:00:08.857Z,5.57
2022-10-22T00:02:35.789Z,5.51
2022-10-22T00:05:02.584Z,5.48
2022-10-22T00:07:29.490Z,5.52
2022-10-22T00:09:56.243Z,5.51
2022-10-22T00:12:23.048Z,5.48
2022-10-22T00:14:50.047Z,5.47
2022-10-22T00:17:16.959Z,5.50
2022-10-22T00:19:43.742Z,5.48
2022-10-22T00:22:11.517Z,5.39
2022-10-22T00:24:39.519Z,5.40
2022-10-22T00:27:08.369Z,5.44
2022-10-22T00:29:35.391Z,5.42
2022-10-22T00:32:02.723Z,5.42
2022-10-22T00:34:29.487Z,5.38
2022-10-22T00:36:56.200Z,5.32
2022-10-22T00:39:25.262Z,5.30
2022-10-22T00:41:53.848Z,5.37
2022-10-22T00:44:57.948Z,5.32
2022-10-22T00:47:26.009Z,5.31
2022-10-22T00:49:53.249Z,5.28
2022-10-22T00:52:20.231Z,5.23
2022-10-22T00:54:47.082Z,5.28
2022-10-22T00:57:14.780Z,5.31
2022-10-22T00:59:41.603Z,5.28
2022-10-22T01:02:08.483Z,5.26
2022-10-22T01:04:35.190Z,5.22
2022-10-22T01:07:02.167Z,5.28
2022-10-22T01:10:04.210Z,5.30
2022-10-22T01:12:55.355Z,5.31
2022-10-22T01:15:25.483Z,5.27
2022-10-22T01:18:05.794Z,5.29
2022-10-22T01:20:44.771Z,5.17
2022-10-22T01:23:33.436Z,5.18
2022-10-22T01:26:18.503Z,5.23
2022-10-22T01:29:16.218Z,5.22
2022-10-22T01:31:51.962Z,5.14
2022-10-22T01:34:19.248Z,5.14
2022-10-22T01:36:46.820Z,5.17
2022-10-22T01:39:15.541Z,5.20
2022-10-22T01:41:45.524Z,5.25
2022-10-22T01:44:26.815Z,5.22
2022-10-22T01:47:07.797Z,5.09
2022-10-22T01:49:43.561Z,5.05
2022-10-22T01:52:39.609Z,5.10
2022-10-22T01:55:28.855Z,5.09
2022-10-22T01:58:04.178Z,5.04
2022-10-22T02:00:31.212Z,5.05
2022-10-22T02:03:04.426Z,5.06
2022-10-22T02:05:43.358Z,5.07
2022-10-22T02:08:12.602Z,5.07
2022-10-22T02:10:40.953Z,4.99
2022-10-22T02:13:10.700Z,5.08
2022-10-22T02:15:38.668Z,5.11
2022-10-22T02:18:06.691Z,5.05
2022-10-22T02:20:36.091Z,5.02
2022-10-22T02:23:03.659Z,5.07
2022-10-22T02:25:37.208Z,5.03
2022-10-22T02:28:16.521Z,5.03
2022-10-22T02:30:47.654Z,4.94
2022-10-22T02:33:14.313Z,4.88
2022-10-22T02:35:42.056Z,4.94
2022-10-22T02:38:09.631Z,5.00
2022-10-22T02:40:36.598Z,4.92
2022-10-22T02:43:06.924Z,4.85
2022-10-22T02:45:34.740Z,4.79
2022-10-22T02:48:01.624Z,4.80
2022-10-22T02:50:28.420Z,4.92
2022-10-22T02:52:55.207Z,5.00
2022-10-22T02:55:21.915Z,4.96
2022-10-22T02:57:48.714Z,4.90
2022-10-22T03:00:16.175Z,4.87
2022-10-22T03:02:42.912Z,4.84
2022-10-22T03:05:10.321Z,4.87
2022-10-22T03:07:37.101Z,4.95
2022-10-22T03:10:04.462Z,4.97
2022-10-22T03:12:31.598Z,4.93
2022-10-22T03:14:58.401Z,4.93
2022-10-22T03:17:25.127Z,4.90
2022-10-22T03:19:51.821Z,4.82
2022-10-22T03:22:25.257Z,4.82
2022-10-22T03:24:54.873Z,4.76
2022-10-22T03:27:22.421Z,4.75
2022-10-22T03:29:50.879Z,4.80
2022-10-22T03:32:17.609Z,4.86
2022-10-22T03:34:44.496Z,4.81
2022-10-22T03:37:11.695Z,4.82
2022-10-22T03:39:38.739Z,4.83
2022-10-22T03:42:07.071Z,4.73
2022-10-22T03:44:36.100Z,4.63
2022-10-22T03:47:03.013Z,4.61
2022-10-22T03:49:29.847Z,4.60
2022-10-22T03:51:56.686Z,4.71
2022-10-22T03:54:23.388Z,4.73
2022-10-22T03:56:50.125Z,4.77
2022-10-22T03:59:16.886Z,4.62
2022-10-22T04:01:43.653Z,4.68
2022-10-22T04:04:10.445Z,4.65
2022-10-22T04:06:37.252Z,4.67
2022-10-22T04:09:04.169Z,4.72
2022-10-22T04:11:31.148Z,4.71
2022-10-22T04:13:57.957Z,4.66
2022-10-22T04:16:27.394Z,4.72
2022-10-22T04:18:57.387Z,4.84
2022-10-22T04:21:24.604Z,4.87
2022-10-22T04:23:52.762Z,4.79
2022-10-22T04:26:20.008Z,4.78
2022-10-22T04:28:48.177Z,4.88
2022-10-22T04:31:17.367Z,4.98
2022-10-22T04:33:44.119Z,5.08
2022-10-22T04:36:16.532Z,5.11
2022-10-22T04:38:44.819Z,5.21
2022-10-22T04:41:20.572Z,5.27
2022-10-22T04:43:47.870Z,5.29
2022-10-22T04:46:16.336Z,5.34
2022-10-22T04:48:44.348Z,5.37
2022-10-22T04:51:13.364Z,5.47
2022-10-22T04:53:42.938Z,5.58
2022-10-22T04:56:12.109Z,5.66
2022-10-22T04:58:39.133Z,5.76
2022-10-22T05:01:13.348Z,5.77
2022-10-22T05:03:40.320Z,5.83
2022-10-22T05:06:07.737Z,5.88
2022-10-22T05:08:34.807Z,5.97
2022-10-22T05:11:01.651Z,5.98
2022-10-22T05:13:28.401Z,6.04
2022-10-22T05:15:55.154Z,6.10
2022-10-22T05:18:22.673Z,6.14
2022-10-22T05:20:49.543Z,6.29
2022-10-22T05:23:16.344Z,6.28
2022-10-22T05:25:43.047Z,6.27
2022-10-22T05:28:09.800Z,6.26
2022-10-22T05:30:36.568Z,6.30
2022-10-22T05:33:03.351Z,6.34
2022-10-22T05:35:30.147Z,6.46
2022-10-22T05:40:31.047Z,6.55
2022-10-22T05:42:59.127Z,6.52
2022-10-22T05:45:25.933Z,6.52
2022-10-22T05:47:52.630Z,6.54
2022-10-22T05:50:19.339Z,6.52
2022-10-22T05:52:46.088Z,6.59
2022-10-22T05:55:12.792Z,6.65
2022-10-22T05:57:40.724Z,6.71
2022-10-22T06:00:10.560Z,6.81
2022-10-22T06:02:39.898Z,6.84
2022-10-22T06:05:07.212Z,6.87
2022-10-22T06:07:34.092Z,6.94
2022-10-22T06:10:01.163Z,7.03
2022-10-22T06:12:28.016Z,7.12
2022-10-22T06:14:54.808Z,7.24
2022-10-22T06:17:21.544Z,7.39
2022-10-22T06:19:48.231Z,7.51
2022-10-22T06:22:14.965Z,7.69
2022-10-22T06:24:45.013Z,7.92
2022-10-22T06:27:12.110Z,8.10
2022-10-22T06:29:38.847Z,8.29
2022-10-22T06:32:05.741Z,8.45
2022-10-22T06:34:32.633Z,8.65
2022-10-22T06:36:59.562Z,8.85
2022-10-22T06:39:26.395Z,8.99
2022-10-22T06:41:53.155Z,9.11
2022-10-22T06:44:20.554Z,9.29
2022-10-22T06:46:52.057Z,9.45
2022-10-22T06:49:20.596Z,9.56
2022-10-22T06:51:51.816Z,9.77
2022-10-22T06:54:18.808Z,9.99
2022-10-22T06:56:45.630Z,10.20
2022-10-22T06:59:12.367Z,10.37
2022-10-22T07:01:39.422Z,10.60
2022-10-22T07:04:06.774Z,10.80
2022-10-22T07:06:33.584Z,11.00
2022-10-22T07:09:00.515Z,11.22
2022-10-22T07:11:30.286Z,11.46
2022-10-22T07:13:58.865Z,11.56
2022-10-22T07:16:29.676Z,11.76
2022-10-22T07:19:00.501Z,11.99
2022-10-22T07:21:27.599Z,12.18
2022-10-22T07:23:54.654Z,12.34
2022-10-22T07:26:21.673Z,12.58
2022-10-22T07:28:48.611Z,12.76
2022-10-22T07:31:16.210Z,12.97
2022-10-22T07:33:43.165Z,13.02
2022-10-22T07:36:12.593Z,13.24
2022-10-22T07:38:39.492Z,13.49
2022-10-22T07:41:06.275Z,13.72
2022-10-22T07:43:33.038Z,13.96
2022-10-22T07:46:00.432Z,13.95
2022-10-22T07:48:27.404Z,14.07
2022-10-22T07:50:54.218Z,14.33
2022-10-22T07:53:21.671Z,14.60
2022-10-22T07:55:50.102Z,14.85
2022-10-22T07:58:18.389Z,15.06
2022-10-22T08:00:45.151Z,15.35
2022-10-22T08:03:12.751Z,15.52
2022-10-22T08:05:40.025Z,15.73
2022-10-22T08:08:07.391Z,15.95
2022-10-22T08:10:35.093Z,16.14
2022-10-22T08:13:02.016Z,16.34
2022-10-22T08:15:28.907Z,16.46
2022-10-22T08:17:55.696Z,16.68
2022-10-22T08:20:22.566Z,16.57
2022-10-22T08:22:49.322Z,16.81
2022-10-22T08:25:18.068Z,17.06
2022-10-22T08:27:45.767Z,17.30
2022-10-22T08:30:13.352Z,17.53
2022-10-22T08:32:40.622Z,17.85
2022-10-22T08:35:07.808Z,18.01
2022-10-22T08:37:34.543Z,18.18
2022-10-22T08:40:01.325Z,18.35
2022-10-22T08:42:52.867Z,18.65
2022-10-22T08:45:41.525Z,18.73
2022-10-22T08:48:43.691Z,18.84
2022-10-22T08:51:18.471Z,18.59
2022-10-22T08:54:06.268Z,18.81
2022-10-22T08:56:35.821Z,19.00
2022-10-22T08:59:14.904Z,19.36
2022-10-22T09:01:49.648Z,19.70
2022-10-22T09:04:25.596Z,19.99
2022-10-22T09:06:54.459Z,20.19
2022-10-22T09:09:21.688Z,20.35
2022-10-22T09:11:50.564Z,20.41
2022-10-22T09:14:25.230Z,20.61
2022-10-22T09:17:13.896Z,20.77
2022-10-22T09:19:46.611Z,20.88
2022-10-22T09:22:43.479Z,20.98
2022-10-22T09:25:26.562Z,21.21
2022-10-22T09:27:58.256Z,21.47
2022-10-22T09:30:28.505Z,21.66
2022-10-22T09:33:01.240Z,21.82
2022-10-22T09:35:28.216Z,22.03
2022-10-22T09:37:56.554Z,22.22
2022-10-22T09:40:23.829Z,22.44
2022-10-22T09:42:51.419Z,22.48
2022-10-22T09:45:20.587Z,22.23
2022-10-22T09:48:01.428Z,21.88
2022-10-22T09:50:39.761Z,22.15
2022-10-22T09:53:26.533Z,22.59
2022-10-22T09:58:28.739Z,22.96
2022-10-22T10:01:00.819Z,23.25
2022-10-22T10:03:31.412Z,23.38
2022-10-22T10:06:03.064Z,23.51
2022-10-22T10:08:32.977Z,23.59
2022-10-22T10:11:08.777Z,23.67
2022-10-22T10:14:04.172Z,23.58
2022-10-22T10:16:58.496Z,23.55
2022-10-22T10:19:37.584Z,23.71
2022-10-22T10:22:15.419Z,23.77
2022-10-22T10:25:02.055Z,24.09
2022-10-22T10:27:36.756Z,24.23
2022-10-22T10:30:03.468Z,24.26
2022-10-22T10:33:01.052Z,24.52
2022-10-22T10:35:35.010Z,24.53
2022-10-22T10:38:29.862Z,24.59
2022-10-22T10:41:04.656Z,24.79
2022-10-22T10:43:44.585Z,24.83
2022-10-22T10:46:29.538Z,24.97
2022-10-22T10:49:20.124Z,25.42
2022-10-22T10:52:21.318Z,25.87
2022-10-22T10:55:16.248Z,26.17
2022-10-22T10:58:04.264Z,26.23
2022-10-22T11:00:36.719Z,26.39
2022-10-22T11:03:16.181Z,26.47
2022-10-22T11:05:55.712Z,26.50
2022-10-22T11:08:27.207Z,26.61
2022-10-22T11:11:02.020Z,26.65
2022-10-22T11:13:59.602Z,26.75
2022-10-22T11:16:56.927Z,26.55
2022-10-22T11:19:57.826Z,26.69
2022-10-22T11:22:44.428Z,27.40
2022-10-22T11:25:32.328Z,27.86
2022-10-22T11:28:11.308Z,27.79
2022-10-22T11:30:39.182Z,27.85
2022-10-22T11:33:10.662Z,27.74
2022-10-22T11:35:45.295Z,27.77
2022-10-22T11:38:15.525Z,27.82
2022-10-22T11:40:48.964Z,27.51
2022-10-22T11:43:35.617Z,27.18
2022-10-22T11:46:09.834Z,27.09
2022-10-22T11:48:38.513Z,26.82
2022-10-22T11:51:37.834Z,26.77
2022-10-22T11:54:29.777Z,26.85
2022-10-22T11:57:14.732Z,26.80
2022-10-22T11:59:47.518Z,26.77
2022-10-22T12:02:43.154Z,26.84
2022-10-22T12:05:22.397Z,26.95
2022-10-22T12:07:52.059Z,26.88
2022-10-22T12:10:20.918Z,26.84
2022-10-22T12:12:58.772Z,26.78
2022-10-22T12:15:28.999Z,26.81
2022-10-22T12:18:05.214Z,26.79
2022-10-22T12:20:32.182Z,26.85
2022-10-22T12:23:00.117Z,26.91
2022-10-22T12:25:35.704Z,26.92
2022-10-22T12:28:02.957Z,26.83
2022-10-22T12:30:32.320Z,26.76
2022-10-22T12:33:02.998Z,26.50
2022-10-22T12:35:35.714Z,26.40
2022-10-22T12:38:10.935Z,26.55
2022-10-22T12:40:45.784Z,26.67
2022-10-22T12:43:18.151Z,26.86
2022-10-22T12:45:47.194Z,26.87
2022-10-22T12:48:23.291Z,26.90
2022-10-22T12:50:53.272Z,26.97
2022-10-22T12:53:25.393Z,27.03
2022-10-22T12:55:53.648Z,27.06
2022-10-22T12:58:23.195Z,26.99
2022-10-22T13:00:57.404Z,27.10
2022-10-22T13:03:46.096Z,27.07
2022-10-22T13:06:12.991Z,27.19
2022-10-22T13:08:40.452Z,27.23
2022-10-22T13:11:10.556Z,27.27
2022-10-22T13:13:37.552Z,27.31
2022-10-22T13:16:24.312Z,27.37
2022-10-22T13:18:52.451Z,27.23
2022-10-22T13:21:33.027Z,27.01
2022-10-22T13:24:19.690Z,26.86
2022-10-22T13:26:53.260Z,26.82
2022-10-22T13:29:21.634Z,26.93
2022-10-22T13:31:50.280Z,27.00
2022-10-22T13:34:21.797Z,26.99
2022-10-22T13:36:49.127Z,26.95
2022-10-22T13:39:23.919Z,26.87
2022-10-22T13:41:51.657Z,26.60
2022-10-22T13:44:21.773Z,26.55
2022-10-22T13:46:48.626Z,26.51
2022-10-22T13:49:19.987Z,26.52
2022-10-22T13:51:47.108Z,26.35
2022-10-22T13:54:20.671Z,26.34
2022-10-22T13:56:47.420Z,26.05
2022-10-22T13:59:15.368Z,25.88
2022-10-22T14:01:45.406Z,25.65
2022-10-22T14:04:14.761Z,25.36
2022-10-22T14:06:41.572Z,25.16
2022-10-22T14:09:14.106Z,24.80
2022-10-22T14:11:40.913Z,24.46
2022-10-22T14:14:09.216Z,24.18
2022-10-22T14:16:37.331Z,23.89
2022-10-22T14:19:04.824Z,23.67
2022-10-22T14:21:35.691Z,23.32
2022-10-22T14:24:02.503Z,23.04
2022-10-22T14:26:33.135Z,22.62
2022-10-22T14:29:15.984Z,22.29
2022-10-22T14:31:44.515Z,21.85
2022-10-22T14:34:13.898Z,21.31
2022-10-22T14:36:43.638Z,21.15
2022-10-22T14:39:10.801Z,20.95
2022-10-22T14:41:37.670Z,20.60
2022-10-22T14:44:04.685Z,20.48
2022-10-22T14:46:31.479Z,20.35
2022-10-22T14:48:58.280Z,19.98
2022-10-22T14:51:25.067Z,19.48
2022-10-22T14:53:51.870Z,19.31
2022-10-22T14:56:21.484Z,18.89
2022-10-22T14:58:48.965Z,18.55
2022-10-22T15:01:15.705Z,18.35
2022-10-22T15:03:42.625Z,18.13
2022-10-22T15:06:09.354Z,17.99
2022-10-22T15:08:36.255Z,17.68
2022-10-22T15:11:02.994Z,17.42
2022-10-22T15:13:30.122Z,17.35
2022-10-22T15:15:58.141Z,17.37
2022-10-22T15:18:25.832Z,17.21
2022-10-22T15:21:00.656Z,17.01
2022-10-22T15:23:27.821Z,16.95
2022-10-22T15:25:55.137Z,16.89
2022-10-22T15:28:22.456Z,16.71
2022-10-22T15:31:00.106Z,16.57
2022-10-22T15:33:28.028Z,16.51
2022-10-22T15:35:55.552Z,16.41
2022-10-22T15:38:22.658Z,16.28
2022-10-22T15:40:49.448Z,16.14
2022-10-22T15:43:16.138Z,16.10
2022-10-22T15:45:42.856Z,15.88
2022-10-22T15:48:11.406Z,15.62
2022-10-22T15:50:40.250Z,15.42
2022-10-22T15:53:07.087Z,15.09
2022-10-22T15:55:33.850Z,14.85
2022-10-22T15:58:03.360Z,14.71
2022-10-22T16:00:30.982Z,14.63
2022-10-22T16:02:57.658Z,14.43
2022-10-22T16:05:24.580Z,14.31
2022-10-22T16:07:53.168Z,14.24
2022-10-22T16:10:20.002Z,14.10
2022-10-22T16:12:46.861Z,14.04
2022-10-22T16:15:13.704Z,13.99
2022-10-22T16:17:40.514Z,13.87
2022-10-22T16:20:07.819Z,13.80
2022-10-22T16:22:34.743Z,13.67
2022-10-22T16:25:01.499Z,13.54
2022-10-22T16:27:28.314Z,13.70
2022-10-22T16:29:55.211Z,13.66
2022-10-22T16:32:22.102Z,13.64
2022-10-22T16:34:48.868Z,13.79
2022-10-22T16:37:15.644Z,13.84
2022-10-22T16:39:42.334Z,13.92
2022-10-22T16:42:09.077Z,13.98
2022-10-22T16:44:35.763Z,13.87
2022-10-22T16:47:02.575Z,13.88
2022-10-22T16:49:29.301Z,13.86
2022-10-22T16:51:56.031Z,13.73
2022-10-22T16:54:22.876Z,13.73
2022-10-22T16:56:49.635Z,13.77
2022-10-22T16:59:16.409Z,13.59
2022-10-22T17:01:43.204Z,13.51
2022-10-22T17:04:10.414Z,13.52
2022-10-22T17:06:37.276Z,13.50
2022-10-22T17:09:04.766Z,13.67
2022-10-22T17:11:36.276Z,13.81
2022-10-22T17:14:04.978Z,13.83
2022-10-22T17:16:31.809Z,13.79
2022-10-22T17:18:58.619Z,13.75
2022-10-22T17:21:25.515Z,13.67
2022-10-22T17:23:56.570Z,13.54
2022-10-22T17:26:24.205Z,13.53
2022-10-22T17:28:51.052Z,13.49
2022-10-22T17:31:19.699Z,13.51
2022-10-22T17:33:47.176Z,13.50
2022-10-22T17:36:14.388Z,13.52
2022-10-22T17:38:42.222Z,13.46
2022-10-22T17:41:13.814Z,13.51
2022-10-22T17:43:41.565Z,13.52
2022-10-22T17:46:19.937Z,13.47
2022-10-22T17:48:55.042Z,13.45
2022-10-22T17:51:23.440Z,13.41
2022-10-22T17:53:52.978Z,13.35
2022-10-22T17:56:22.171Z,13.31
2022-10-22T17:58:49.375Z,13.31
2022-10-22T18:01:20.028Z,13.24
2022-10-22T18:03:47.101Z,13.18
2022-10-22T18:06:14.584Z,13.11
2022-10-22T18:08:54.878Z,13.16
2022-10-22T18:11:23.867Z,13.16
2022-10-22T18:13:51.873Z,13.07
2022-10-22T18:16:19.324Z,12.97
2022-10-22T18:18:47.629Z,12.94
2022-10-22T18:21:15.529Z,12.94
2022-10-22T18:23:42.643Z,12.98
2022-10-22T18:26:09.496Z,13.02
2022-10-22T18:28:36.683Z,12.83
2022-10-22T18:31:12.637Z,12.78
2022-10-22T18:33:40.741Z,12.64
2022-10-22T18:36:12.332Z,12.57
2022-10-22T18:38:39.447Z,12.58
2022-10-22T18:41:07.615Z,12.53
2022-10-22T18:43:35.459Z,12.43
2022-10-22T18:46:02.447Z,12.36
2022-10-22T18:48:29.177Z,12.29
2022-10-22T18:51:01.797Z,12.23
2022-10-22T18:53:28.976Z,12.24
2022-10-22T18:55:55.720Z,12.17
2022-10-22T18:58:22.563Z,12.13
2022-10-22T19:00:50.562Z,12.17
2022-10-22T19:03:17.740Z,12.15
2022-10-22T19:05:49.438Z,12.17
2022-10-22T19:08:19.140Z,12.17
2022-10-22T19:10:47.136Z,12.19
2022-10-22T19:13:16.223Z,12.15
2022-10-22T19:15:43.254Z,12.13
2022-10-22T19:18:10.296Z,12.03
2022-10-22T19:20:37.129Z,12.09
2022-10-22T19:23:04.328Z,12.14
2022-10-22T19:25:31.062Z,12.17
2022-10-22T19:27:57.820Z,12.15
2022-10-22T19:30:24.640Z,12.07
2022-10-22T19:32:51.386Z,12.10
2022-10-22T19:35:18.176Z,12.10
2022-10-22T19:37:48.310Z,11.99
2022-10-22T19:40:15.426Z,11.86
2022-10-22T19:42:44.374Z,11.79
2022-10-22T19:45:11.643Z,11.73
2022-10-22T19:47:38.364Z,11.70
2022-10-22T19:50:05.772Z,11.66
2022-10-22T19:52:33.303Z,11.61
2022-10-22T19:55:00.004Z,11.57
2022-10-22T19:57:26.720Z,11.58
2022-10-22T19:59:53.432Z,11.47
2022-10-22T20:02:20.196Z,11.40
2022-10-22T20:04:49.989Z,11.36
2022-10-22T20:07:16.923Z,11.20
2022-10-22T20:09:43.666Z,11.09
2022-10-22T20:12:10.370Z,11.15
2022-10-22T20:14:37.510Z,11.21
2022-10-22T20:17:04.494Z,11.16
2022-10-22T20:19:31.363Z,11.19
2022-10-22T20:24:30.024Z,11.17
2022-10-22T20:26:56.763Z,11.13
2022-10-22T20:29:23.474Z,11.10
2022-10-22T20:31:50.236Z,11.10
2022-10-22T20:34:17.276Z,11.13
2022-10-22T20:36:43.991Z,11.01
2022-10-22T20:39:12.921Z,10.94
2022-10-22T20:41:40.572Z,10.92
2022-10-22T20:44:11.559Z,11.05
2022-10-22T20:46:38.427Z,10.97
2022-10-22T20:49:08.001Z,10.94
2022-10-22T20:51:37.953Z,10.86
2022-10-22T20:54:05.779Z,10.95
2022-10-22T20:56:32.656Z,10.89
2022-10-22T20:59:05.689Z,10.88
2022-10-22T21:01:44.671Z,10.91
2022-10-22T21:04:11.539Z,10.93
2022-10-22T21:06:40.225Z,11.00
2022-10-22T21:09:08.193Z,10.93
2022-10-22T21:11:36.186Z,10.97
2022-10-22T21:14:03.573Z,10.97
2022-10-22T21:16:30.448Z,10.97
2022-10-22T21:18:57.510Z,10.99
2022-10-22T21:21:24.196Z,10.98
2022-10-22T21:23:51.560Z,11.00
2022-10-22T21:26:19.798Z,11.02
2022-10-22T21:28:47.204Z,10.96
2022-10-22T21:31:20.532Z,10.98
2022-10-22T21:33:49.760Z,10.99
2022-10-22T21:36:21.616Z,10.96
2022-10-22T21:38:50.605Z,10.91
2022-10-22T21:41:18.812Z,10.92
2022-10-22T21:43:46.116Z,10.93
2022-10-22T21:46:24.214Z,10.93
2022-10-22T21:48:59.287Z,10.88
2022-10-22T21:51:26.104Z,10.99
2022-10-22T21:53:53.354Z,10.92
2022-10-22T21:56:28.575Z,10.94
2022-10-22T21:58:57.472Z,10.95
2022-10-22T22:01:24.678Z,10.95
2022-10-22T22:03:52.410Z,10.92
2022-10-22T22:06:22.027Z,10.99
2022-10-22T22:08:50.075Z,10.97
2022-10-22T22:11:19.314Z,11.01
2022-10-22T22:13:47.260Z,11.08
2022-10-22T22:16:16.428Z,11.15
2022-10-22T22:18:43.188Z,11.16
2022-10-22T22:21:18.387Z,11.11
2022-10-22T22:23:46.566Z,11.06
2022-10-22T22:26:15.053Z,10.99
2022-10-22T22:28:41.642Z,10.98
2022-10-22T22:31:22.933Z,10.93
2022-10-22T22:33:49.627Z,10.80
2022-10-22T22:36:17.528Z,10.66
2022-10-22T22:38:44.212Z,10.57
2022-10-22T22:41:10.957Z,10.56
2022-10-22T22:43:37.780Z,10.45
2022-10-22T22:46:07.663Z,10.43
2022-10-22T22:48:34.749Z,10.30
2022-10-22T22:51:05.767Z,10.33
2022-10-22T22:53:33.820Z,10.29
2022-10-22T22:56:13.142Z,10.30
2022-10-22T22:58:40.765Z,10.23
2022-10-22T23:01:20.375Z,10.25
2022-10-22T23:03:57.927Z,10.29
2022-10-22T23:06:30.039Z,10.37
2022-10-22T23:08:57.264Z,10.50
2022-10-22T23:11:25.968Z,10.48
2022-10-22T23:14:00.535Z,10.42
2022-10-22T23:16:32.196Z,10.46
2022-10-22T23:18:59.933Z,10.43
2022-10-22T23:21:29.824Z,10.32
2022-10-22T23:23:59.127Z,10.39
2022-10-22T23:26:29.179Z,10.38
2022-10-22T23:29:03.495Z,10.40
2022-10-22T23:31:30.238Z,10.25
2022-10-22T23:33:57.348Z,10.24
2022-10-22T23:36:24.112Z,10.22
2022-10-22T23:38:50.888Z,10.13
2022-10-22T23:41:17.972Z,10.12
2022-10-22T23:43:44.756Z,10.11
2022-10-22T23:46:12.693Z,10.16
2022-10-22T23:48:40.246Z,10.05
2022-10-22T23:51:08.802Z,10.03
2022-10-22T23:53:35.493Z,10.06
2022-10-22T23:56:06.919Z,10.01
2022-10-22T23:58:34.313Z,10.01
